Latest Coastal Weather Observations for Karratha

IDW60701

Issued at 10:53 am WST Wednesday 26 July 2017 (issued every 10 minutes, with the page automatically refreshed every 10 minutes)

About coastal observations | Map of coastal stations | Coastal observations for WA | Marine services | Other Formats
Station Details ID: 004083 Name: KARRATHA AERO Lat: -20.71 Lon: 116.77 Height: 5.3 m
Data from the previous 72 hours. | See also: Recent months at Karratha
Date/Time
WST
Temp
°C
Wind Pressure Rain since
9am
mm
Weather Cloud Vis
km
Sea
Height
m
Swell
Dir  Spd
kts
Gust
kts
hPa Trend Height
m
Period
s
Dir
26/10:30am 25.3 NE 7 9 1018.6 - 0.0 - - 10 - - - -
26/10:00am 25.2 ENE 9 11 1018.7 - 0.0 - - 10 - - - -
26/09:30am 24.9 NE 7 10 1018.7 - 0.0 - - 10 - - - -
26/09:00am 24.4 SSE 6 8 1018.1 - 0.0 - - 10 - - - -
26/08:30am 22.6 SSE 7 9 1017.9 - 0.0 - - 10 - - - -
26/08:00am 20.2 SSE 8 9 1017.4 - 0.0 - - 10 - - - -
26/07:30am 17.5 SSE 6 8 1017.1 - 0.0 - - 10 - - - -
26/07:00am 15.3 SSE 6 8 1016.8 - 0.0 - - 10 - - - -
26/06:30am 15.1 SSE 7 9 1016.6 - 0.0 - - 10 - - - -
26/06:00am 16.2 S 10 11 1016.3 - 0.0 - - 10 - - - -
26/05:30am 16.1 S 9 10 1016.3 - 0.0 - - 10 - - - -
26/05:00am 15.7 SSE 8 9 1016.3 - 0.0 - - 10 - - - -
26/04:30am 16.0 S 8 9 1016.3 - 0.0 - - 10 - - - -
26/04:00am 16.5 S 9 10 1016.2 - 0.0 - - 10 - - - -
26/03:30am 15.8 SSE 7 8 1016.3 - 0.0 - - 10 - - - -
26/03:00am 16.2 S 8 9 1016.4 - 0.0 - - 10 - - - -
26/02:30am 15.8 S 7 8 1016.5 - 0.0 - - 10 - - - -
26/02:00am 16.0 S 7 8 1016.4 - 0.0 - - 10 - - - -
26/01:30am 16.8 SSE 8 10 1016.7 - 0.0 - - 10 - - - -
26/01:00am 16.8 SW 5 6 1016.5 - 0.0 - - 10 - - - -
26/12:30am 17.3 CALM 0 4 1016.7 - 0.0 - - 10 - - - -
26/12:00am 17.2 CALM 0 0 1016.7 - 0.0 - - 10 - - - -
 
Date/Time
WST
Temp
°C
Wind Pressure Rain since
9am
mm
Weather Cloud Vis
km
Sea
Height
m
Swell
Dir  Spd
kts
Gust
kts
hPa Trend Height
m
Period
s
Dir
25/11:30pm 17.3 SSW 4 5 1016.9 - 0.0 - - 10 - - - -
25/11:00pm 17.2 S 6 7 1017.0 - 0.0 - - 10 - - - -
25/10:30pm 18.0 SSW 5 6 1017.2 - 0.0 - - 10 - - - -
25/10:00pm 18.4 SW 5 6 1017.2 - 0.0 - - 10 - - - -
25/09:30pm 19.7 SW 6 6 1017.3 - 0.0 - - 10 - - - -
25/09:00pm 20.7 WSW 6 7 1017.1 - 0.0 - - 10 - - - -
25/08:30pm 21.4 SW 5 5 1017.0 - 0.0 - - 10 - - - -
25/08:00pm 23.2 CALM 0 0 1016.9 - 0.0 - - 10 - - - -
25/07:30pm 22.8 CALM 0 0 1016.7 - 0.0 - - 10 - - - -
25/07:00pm 22.2 NE 1 3 1016.4 - 0.0 - - 10 - - - -
25/06:30pm 23.1 CALM 0 0 1016.1 - 0.0 - - 10 - - - -
25/06:00pm 24.1 NNE 3 4 1016.1 - 0.0 - - 10 - - - -
25/05:30pm 25.3 NE 5 6 1015.9 - 0.0 - - 10 - - - -
25/05:00pm 26.6 NE 6 8 1015.6 - 0.0 - - 10 - - - -
25/04:30pm 27.4 NE 8 10 1015.5 - 0.0 - - 10 - - - -
25/04:00pm 27.9 NE 10 12 1015.2 - 0.0 - - 10 - - - -
25/03:30pm 28.2 NE 10 13 1015.1 - 0.0 - - 10 - - - -
25/03:00pm 28.5 NE 10 12 1015.1 - 0.0 - - 10 - - - -
25/02:30pm 28.1 NE 9 13 1015.1 - 0.0 - - 10 - - - -
25/02:00pm 28.4 NNE 9 11 1015.2 - 0.0 - - 10 - - - -
25/01:30pm 28.0 NNE 9 11 1015.1 - 0.0 - - 10 - - - -
25/01:00pm 27.7 NNE 10 13 1015.1 - 0.0 - - 10 - - - -
25/12:30pm 26.8 NE 9 11 1015.3 - 0.0 - - 10 - - - -
25/12:00pm 26.2 NE 9 11 1015.6 - 0.0 - - 10 - - - -
25/11:30am 26.2 NE 8 9 1016.1 - 0.0 - - 10 - - - -
25/11:00am 25.7 NE 8 10 1016.5 - 0.0 - - 10 - - - -
25/10:30am 25.1 NE 6 8 1016.9 - 0.0 - - 10 - - - -
25/10:00am 24.3 ENE 8 9 1017.2 - 0.0 - - 10 - - - -
25/09:30am 24.8 E 5 7 1017.2 - 0.0 - - 10 - - - -
25/09:00am 23.0 SSE 6 8 1017.4 - 0.0 - - 10 - - - -
25/08:30am 20.7 S 6 8 1017.1 - 0.0 - - 10 - - - -
25/08:00am 18.4 SSE 6 7 1016.9 - 0.0 - - 10 - - - -
25/07:30am 16.5 S 7 8 1016.7 - 0.0 - - 10 - - - -
25/07:00am 15.4 S 7 8 1016.5 - 0.0 - - 10 - - - -
25/06:30am 15.0 S 8 8 1016.3 - 0.0 - - 10 - - - -
25/06:00am 14.8 S 6 7 1016.3 - 0.0 - - 10 - - - -
25/05:30am 14.8 S 6 7 1016.3 - 0.0 - - 10 - - - -
25/05:00am 15.2 SSE 6 7 1016.3 - 0.0 - - 10 - - - -
25/04:30am 15.2 SSE 6 6 1016.3 - 0.0 - - 10 - - - -
25/04:00am 14.9 SSE 7 7 1016.3 - 0.0 - - 10 - - - -
25/03:30am 15.2 S 5 6 1016.4 - 0.0 - - 10 - - - -
25/03:00am 15.9 S 5 5 1016.5 - 0.0 - - 10 - - - -
25/02:30am 16.1 CALM 0 0 1016.7 - 0.0 - - 10 - - - -
25/02:00am 17.0 CALM 0 0 1016.7 - 0.0 - - 10 - - - -
25/01:30am 17.0 E 3 4 1016.8 - 0.0 - - 10 - - - -
25/01:00am 17.5 CALM 0 0 1017.0 - 0.0 - - 10 - - - -
25/12:30am 17.9 SSW 1 4 1017.3 - 0.0 - - 10 - - - -
25/12:00am 18.6 SW 6 7 1017.3 - 0.0 - - 10 - - - -
 
Date/Time
WST
Temp
°C
Wind Pressure Rain since
9am
mm
Weather Cloud Vis
km
Sea
Height
m
Swell
Dir  Spd
kts
Gust
kts
hPa Trend Height
m
Period
s
Dir
24/11:30pm 18.8 WSW 5 6 1017.3 - 0.0 - - 10 - - - -
24/11:00pm 18.8 SW 7 8 1017.2 - 0.0 - - 10 - - - -
24/10:30pm 19.5 SW 7 8 1017.4 - 0.0 - - 10 - - - -
24/10:00pm 19.9 SW 7 8 1017.3 - 0.0 - - 10 - - - -
24/09:30pm 22.3 W 7 9 1017.2 - 0.0 - - 10 - - - -
24/09:00pm 22.4 W 8 9 1017.1 - 0.0 - - 10 - - - -
24/08:30pm 22.6 W 8 9 1016.9 - 0.0 - - 10 - - - -
24/08:00pm 22.5 WNW 7 9 1016.8 - 0.0 - - 10 - - - -
24/07:30pm 22.5 WNW 6 8 1016.5 - 0.0 - - 10 - - - -
24/07:00pm 22.7 NNW 7 9 1016.0 - 0.0 - - 10 - - - -
24/06:30pm 22.9 NNW 7 9 1015.6 - 0.0 - - 10 - - - -
24/06:00pm 23.3 NNW 9 11 1015.1 - 0.0 - - 10 - - - -
24/05:30pm 24.0 NNW 8 11 1014.9 - 0.0 - - 10 - - - -
24/05:00pm 24.4 NNW 9 12 1014.5 - 0.0 - - 10 - - - -
24/04:30pm 25.3 NNW 9 11 1014.4 - 0.0 - - 10 - - - -
24/04:00pm 25.8 NNE 8 10 1014.2 - 0.0 - - 10 - - - -
24/03:30pm 26.2 NNE 9 13 1014.1 - 0.0 - - 10 - - - -
24/03:00pm 26.4 NNE 10 14 1014.2 - 0.0 - - 10 - - - -
24/02:30pm 27.0 NNE 11 13 1014.3 - 0.0 - - 10 - - - -
24/02:00pm 27.7 NNE 9 13 1014.4 - 0.0 - - 10 - - - -
24/01:30pm 28.0 N 8 9 1014.7 - 0.0 - - 10 - - - -
24/01:00pm 28.0 W 6 8 1015.0 - 0.0 - - 10 - - - -
24/12:30pm 26.7 NNW 5 7 1015.6 - 0.0 - - 10 - - - -
24/12:00pm 25.6 NNW 5 7 1016.1 - 0.0 - - 10 - - - -
24/11:30am 25.3 NNW 6 7 1016.6 - 0.0 - - 10 - - - -
24/11:00am 25.8 ENE 4 7 1017.1 - 0.0 - - 10 - - - -
24/10:30am 25.2 SE 2 7 1017.3 - 0.0 - - 10 - - - -
24/10:00am 24.5 NE 2 6 1017.6 - 0.0 - - 10 - - - -
24/09:30am 23.1 E 3 6 1017.8 - 0.0 - - 10 - - - -
24/09:00am 22.3 ENE 2 5 1017.7 - 0.0 - - 10 - - - -
24/08:30am 20.4 CALM 0 0 1017.5 - 0.0 - - 10 - - - -
24/08:00am 17.6 CALM 0 3 1017.2 - 0.0 - - 10 - - - -
24/07:30am 15.2 SSE 1 3 1016.9 - 0.0 - - 10 - - - -
24/07:00am 14.2 SSE 7 8 1016.6 - 0.0 - - 10 - - - -
24/06:30am 13.8 S 7 8 1016.3 - 0.0 - - 10 - - - -
24/06:00am 14.8 CALM 0 0 1015.9 - 0.0 - - 10 - - - -
24/05:30am 14.4 CALM 0 0 1015.7 - 0.0 - - 10 - - - -
24/05:00am 14.8 CALM 0 1 1015.6 - 0.0 - - 10 - - - -
24/04:30am 14.6 SE 4 4 1015.7 - 0.0 - - 10 - - - -
24/04:00am 14.9 ESE 4 5 1015.7 - 0.0 - - 10 - - - -
24/03:30am 15.1 SE 2 5 1015.7 - 0.0 - - 10 - - - -
24/03:00am 15.5 S 7 8 1015.5 - 0.0 - - 10 - - - -
24/02:30am 15.9 S 8 9 1015.6 - 0.0 - - 10 - - - -
24/02:00am 15.6 SSE 6 7 1015.9 - 0.0 - - 10 - - - -
24/01:30am 15.7 S 2 5 1016.0 - 0.0 - - 10 - - - -
24/01:00am 16.8 CALM 0 0 1015.9 - 0.0 - - 10 - - - -
24/12:30am 16.8 CALM 0 0 1016.0 - 0.0 - - 10 - - - -
24/12:00am 16.6 CALM 0 0 1016.1 - 0.0 - - 10 - - - -
 
Date/Time
WST
Temp
°C
Wind Pressure Rain since
9am
mm
Weather Cloud Vis
km
Sea
Height
m
Swell
Dir  Spd
kts
Gust
kts
hPa Trend Height
m
Period
s
Dir
23/11:30pm 17.0 CALM 0 0 1016.2 - 0.0 - - 10 - - - -
23/11:00pm 17.6 CALM 0 0 1016.4 - 0.0 - - 10 - - - -
23/10:30pm 18.8 NNE 3 4 1016.5 - 0.0 - - 10 - - - -
23/10:00pm 18.6 NE 1 4 1016.4 - 0.0 - - 10 - - - -
23/09:30pm 19.3 CALM 0 2 1016.3 - 0.0 - - 10 - - - -
23/09:00pm 21.4 NNW 4 5 1016.1 - 0.0 - - 10 - - - -
23/08:30pm 20.4 N 1 4 1015.9 - 0.0 - - 10 - - - -
23/08:00pm 20.2 NNE 5 5 1015.8 - 0.0 - - 10 - - - -
23/07:30pm 20.8 NE 5 6 1015.5 - 0.0 - - 10 - - - -
23/07:00pm 21.3 NNE 5 6 1015.2 - 0.0 - - 10 - - - -
23/06:30pm 21.4 NE 9 10 1014.6 - 0.0 - - 10 - - - -
23/06:00pm 22.0 NE 8 10 1014.4 - 0.0 - - 10 - - - -
23/05:30pm 22.8 NE 8 11 1014.0 - 0.0 - - 10 - - - -
23/05:00pm 23.6 NE 9 11 1013.8 - 0.0 - - 10 - - - -
23/04:30pm 23.8 NNE 9 11 1013.7 - 0.0 - - 10 - - - -
23/04:00pm 24.5 NNE 9 11 1013.6 - 0.0 - - 10 - - - -
23/03:30pm 24.7 NE 10 12 1013.5 - 0.0 - - 10 - - - -
23/03:00pm 25.1 NNE 9 11 1013.6 - 0.0 - - 10 - - - -
23/02:30pm 25.3 NNE 9 11 1013.8 - 0.0 - - 10 - - - -
23/02:00pm 25.3 NNE 9 11 1014.1 - 0.0 - - 10 - - - -
23/01:30pm 26.1 NNE 8 11 1014.5 - 0.0 - - 10 - - - -
23/01:00pm 25.5 NE 9 11 1014.9 - 0.0 - - 10 - - - -
23/12:30pm 24.9 NE 9 11 1015.4 - 0.0 - - 10 - - - -
23/12:00pm 25.0 ENE 8 13 1015.9 - 0.0 - - 10 - - - -
23/11:30am 24.8 E 9 13 1016.4 - 0.0 - - 10 - - - -
23/11:00am 24.9 E 9 11 1016.9 - 0.0 - - 10 - - - -

Other Formats:

Comma delimited format used in spreadsheet applications
http://www.bom.gov.au/fwo/IDW60701/IDW60701.95307.axf

JavaScript Object Notation format (JSON) in row-major order
http://www.bom.gov.au/fwo/IDW60701/IDW60701.95307.json